Time;durP1;ratioP1;P1;durP2;ratioP2;P2;SDS_P1;SDS_P2;PMS_P1;PMS_P2;Temp;Humidity;BMP_temperature;BMP_pressure;BME280_temperature;BME280_humidity;BME280_pressure;Samples;Min_cycle;Max_cycle;Signal;HPM_P1;HPM_P2
2023/01/08 00:01:21;;;;;;;;;;;11.30;86.60;;;;;;4995286;28;19953;-78
2023/01/08 00:03:47;;;;;;;;;;;11.30;86.50;;;;;;4995330;28;19920;-77
2023/01/08 00:06:14;;;;;;;;;;;11.30;86.50;;;;;;5012835;28;20406;-78
2023/01/08 00:08:39;;;;;;;;;;;11.30;86.70;;;;;;4995242;28;20015;-77
2023/01/08 00:11:05;;;;;;;;;;;11.40;86.90;;;;;;5012907;28;19952;-77
2023/01/08 00:13:31;;;;;;;;;;;11.40;86.80;;;;;;5012929;28;20347;-77
2023/01/08 00:16:01;;;;;;;;;;;11.40;86.70;;;;;;4994904;28;19952;-76
2023/01/08 00:18:27;;;;;;;;;;;11.40;86.70;;;;;;5012674;28;19914;-77
2023/01/08 00:20:53;;;;;;;;;;;11.40;86.60;;;;;;5012726;28;20372;-76
2023/01/08 00:23:19;;;;;;;;;;;11.40;86.50;;;;;;4990534;28;19949;-77
2023/01/08 00:25:44;;;;;;;;;;;11.30;86.50;;;;;;4975095;28;19968;-77
2023/01/08 00:28:10;;;;;;;;;;;11.40;86.50;;;;;;4990960;28;19918;-77
2023/01/08 00:30:35;;;;;;;;;;;11.40;86.50;;;;;;4973855;28;19913;-77
2023/01/08 00:33:01;;;;;;;;;;;11.30;86.50;;;;;;4990952;28;19930;-76
2023/01/08 00:35:26;;;;;;;;;;;11.40;86.70;;;;;;4991208;28;19914;-77
2023/01/08 00:37:52;;;;;;;;;;;11.40;86.70;;;;;;4990901;28;19922;-76
2023/01/08 00:40:18;;;;;;;;;;;11.40;86.70;;;;;;4991357;28;20001;-77
2023/01/08 00:42:43;;;;;;;;;;;11.40;86.60;;;;;;4990946;28;19910;-76
2023/01/08 00:45:09;;;;;;;;;;;11.40;86.60;;;;;;4990625;28;19910;-77
2023/01/08 00:47:34;;;;;;;;;;;11.40;86.50;;;;;;4985793;28;19956;-77
2023/01/08 00:50:00;;;;;;;;;;;11.50;86.40;;;;;;4991054;28;19918;-77
2023/01/08 00:52:25;;;;;;;;;;;11.40;86.30;;;;;;4991336;28;19910;-77
2023/01/08 00:54:51;;;;;;;;;;;11.40;86.20;;;;;;4990680;28;20003;-77
2023/01/08 00:57:17;;;;;;;;;;;11.40;86.30;;;;;;4996765;28;19910;-77
2023/01/08 00:59:42;;;;;;;;;;;11.40;86.20;;;;;;5015241;28;19932;-77
2023/01/08 01:02:08;;;;;;;;;;;11.40;86.10;;;;;;5012682;28;20004;-77
2023/01/08 01:04:34;;;;;;;;;;;11.50;86.10;;;;;;4997903;28;19914;-77
2023/01/08 01:06:59;;;;;;;;;;;11.50;86.10;;;;;;5016583;28;19916;-76
2023/01/08 01:09:26;;;;;;;;;;;11.50;86.70;;;;;;4998838;28;20202;-77
2023/01/08 01:11:52;;;;;;;;;;;11.40;86.10;;;;;;4999497;28;20258;-77
2023/01/08 01:14:17;;;;;;;;;;;11.50;86.10;;;;;;5022382;28;19921;-75
2023/01/08 01:16:46;;;;;;;;;;;11.50;86.10;;;;;;5036511;28;19909;-76
2023/01/08 01:19:11;;;;;;;;;;;11.50;86.10;;;;;;5036683;28;19909;-76
2023/01/08 01:21:37;;;;;;;;;;;11.50;86.10;;;;;;5019031;28;19901;-76
2023/01/08 01:24:03;;;;;;;;;;;11.50;86.10;;;;;;5036241;28;19913;-76
2023/01/08 01:26:29;;;;;;;;;;;11.40;86.00;;;;;;5018167;28;19972;-77
2023/01/08 01:28:55;;;;;;;;;;;11.50;86.00;;;;;;5018026;28;19909;-76
2023/01/08 01:31:22;;;;;;;;;;;11.40;85.90;;;;;;5035122;28;19933;-76
2023/01/08 01:33:47;;;;;;;;;;;11.50;86.00;;;;;;5035068;28;19935;-77
2023/01/08 01:36:14;;;;;;;;;;;11.50;85.90;;;;;;5035137;28;19913;-76
2023/01/08 01:38:43;;;;;;;;;;;11.40;85.90;;;;;;5034689;28;19933;-75
2023/01/08 01:41:17;;;;;;;;;;;11.50;85.90;;;;;;5031168;28;19976;-77
2023/01/08 01:43:42;;;;;;;;;;;11.50;86.00;;;;;;5015328;28;19956;-77
2023/01/08 01:46:20;;;;;;;;;;;11.50;86.00;;;;;;5014178;28;19940;-77
2023/01/08 01:48:47;;;;;;;;;;;11.50;85.90;;;;;;5013968;28;19921;-77
2023/01/08 01:51:12;;;;;;;;;;;11.40;85.80;;;;;;5012740;28;19913;-77
2023/01/08 01:53:40;;;;;;;;;;;11.40;86.00;;;;;;5031105;28;19914;-77
2023/01/08 01:56:06;;;;;;;;;;;11.40;86.00;;;;;;5029845;28;20435;-77
2023/01/08 01:58:31;;;;;;;;;;;11.30;86.00;;;;;;5030193;28;19921;-78
2023/01/08 02:00:59;;;;;;;;;;;11.40;86.00;;;;;;5029470;28;19936;-76
2023/01/08 02:03:28;;;;;;;;;;;11.40;86.10;;;;;;5028628;28;19913;-77
2023/01/08 02:06:09;;;;;;;;;;;11.30;86.10;;;;;;5018400;28;19959;-77
2023/01/08 02:08:44;;;;;;;;;;;11.30;86.10;;;;;;5016611;28;19921;-77
2023/01/08 02:11:11;;;;;;;;;;;11.30;86.10;;;;;;5016085;28;19957;-77
2023/01/08 02:13:38;;;;;;;;;;;11.30;86.10;;;;;;4997690;28;19991;-77
2023/01/08 02:16:24;;;;;;;;;;;11.30;86.10;;;;;;5015298;28;19941;-77
2023/01/08 02:18:53;;;;;;;;;;;11.30;86.10;;;;;;5013806;28;20051;-77
2023/01/08 02:21:34;;;;;;;;;;;11.30;86.10;;;;;;4997230;28;19914;-76
2023/01/08 02:24:18;;;;;;;;;;;11.30;86.10;;;;;;5014900;28;19942;-78
2023/01/08 02:26:44;;;;;;;;;;;11.30;86.00;;;;;;5014578;28;20267;-77
2023/01/08 02:29:29;;;;;;;;;;;11.30;86.10;;;;;;5014432;28;19917;-77
2023/01/08 02:31:55;;;;;;;;;;;11.30;86.10;;;;;;4996629;28;20238;-77
2023/01/08 02:34:20;;;;;;;;;;;11.30;86.10;;;;;;5013862;28;20004;-78
2023/01/08 02:36:46;;;;;;;;;;;11.30;86.00;;;;;;5014179;28;20387;-78
2023/01/08 02:39:24;;;;;;;;;;;11.30;86.00;;;;;;4996359;28;20431;-77
2023/01/08 02:41:55;;;;;;;;;;;11.30;86.00;;;;;;5013826;28;20065;-77
2023/01/08 02:44:23;;;;;;;;;;;11.30;86.10;;;;;;5013662;28;19913;-77
2023/01/08 02:46:50;;;;;;;;;;;11.30;86.10;;;;;;5013603;28;19936;-77
2023/01/08 02:49:17;;;;;;;;;;;11.30;86.00;;;;;;4995939;28;19932;-77
2023/01/08 02:51:48;;;;;;;;;;;11.30;86.10;;;;;;5013514;28;19918;-77
2023/01/08 02:54:16;;;;;;;;;;;11.30;86.10;;;;;;5012900;28;19917;-77
2023/01/08 02:56:44;;;;;;;;;;;11.30;86.30;;;;;;5013447;28;20371;-77
2023/01/08 02:59:11;;;;;;;;;;;11.30;86.90;;;;;;5013353;28;19960;-78
2023/01/08 03:01:37;;;;;;;;;;;11.30;86.20;;;;;;4995504;28;19988;-77
2023/01/08 03:04:05;;;;;;;;;;;11.30;86.20;;;;;;4995446;28;19976;-78
2023/01/08 03:06:31;;;;;;;;;;;11.20;86.10;;;;;;5013420;28;19961;-77
2023/01/08 03:08:58;;;;;;;;;;;11.20;86.20;;;;;;5012999;28;20024;-77
2023/01/08 03:11:25;;;;;;;;;;;11.20;86.20;;;;;;5013010;28;19921;-78
2023/01/08 03:13:55;;;;;;;;;;;11.10;86.20;;;;;;5013019;28;19914;-77
2023/01/08 03:16:33;;;;;;;;;;;11.10;86.20;;;;;;4995209;28;19914;-78
2023/01/08 03:19:01;;;;;;;;;;;11.10;86.20;;;;;;4995189;28;19918;-77
2023/01/08 03:21:27;;;;;;;;;;;11.10;86.30;;;;;;5013002;28;19914;-78
2023/01/08 03:23:52;;;;;;;;;;;11.00;86.20;;;;;;4995181;28;20048;-78
2023/01/08 03:26:21;;;;;;;;;;;11.00;86.30;;;;;;5012845;28;19952;-78
2023/01/08 03:28:50;;;;;;;;;;;10.90;86.20;;;;;;4995012;28;20337;-78
2023/01/08 03:31:17;;;;;;;;;;;10.90;86.30;;;;;;5012498;28;19964;-78
2023/01/08 03:33:44;;;;;;;;;;;10.80;86.30;;;;;;5012493;28;19918;-78
2023/01/08 03:36:12;;;;;;;;;;;10.80;86.40;;;;;;4995045;28;19944;-78
2023/01/08 03:38:41;;;;;;;;;;;10.80;86.40;;;;;;4994955;28;19943;-77
2023/01/08 03:41:09;;;;;;;;;;;10.80;86.40;;;;;;5012478;28;19913;-78
2023/01/08 03:43:35;;;;;;;;;;;10.80;86.30;;;;;;5012542;28;19964;-78
2023/01/08 03:46:02;;;;;;;;;;;10.70;86.30;;;;;;5012613;28;19948;-78
2023/01/08 03:48:29;;;;;;;;;;;10.70;86.20;;;;;;5009265;28;20404;-78
2023/01/08 03:50:55;;;;;;;;;;;10.60;86.10;;;;;;4994830;28;19967;-78
2023/01/08 03:53:20;;;;;;;;;;;10.60;85.80;;;;;;5012496;28;20376;-78
2023/01/08 03:55:45;;;;;;;;;;;10.60;86.00;;;;;;5012369;28;20000;-78
2023/01/08 03:58:11;;;;;;;;;;;10.60;86.00;;;;;;5012329;28;19913;-79
2023/01/08 04:00:37;;;;;;;;;;;10.50;86.00;;;;;;5012220;28;19914;-77
2023/01/08 04:03:02;;;;;;;;;;;10.50;86.10;;;;;;5011991;28;19960;-78
2023/01/08 04:05:28;;;;;;;;;;;10.40;86.20;;;;;;4994022;28;19913;-78
2023/01/08 04:07:54;;;;;;;;;;;10.40;86.30;;;;;;5012054;28;19917;-77
2023/01/08 04:10:19;;;;;;;;;;;10.40;86.40;;;;;;4994307;28;19991;-78
2023/01/08 04:12:45;;;;;;;;;;;10.40;86.40;;;;;;5012369;28;19957;-78
2023/01/08 04:15:10;;;;;;;;;;;10.40;86.40;;;;;;5012330;28;19914;-78
2023/01/08 04:17:36;;;;;;;;;;;10.30;86.40;;;;;;4994434;28;20376;-77
2023/01/08 04:20:01;;;;;;;;;;;10.30;86.30;;;;;;5012290;28;19914;-77
2023/01/08 04:22:27;;;;;;;;;;;10.40;86.40;;;;;;5012211;28;19964;-77
2023/01/08 04:24:52;;;;;;;;;;;10.40;86.40;;;;;;5012278;28;19978;-79
2023/01/08 04:27:18;;;;;;;;;;;10.30;86.40;;;;;;5011958;28;19914;-77
2023/01/08 04:29:43;;;;;;;;;;;10.30;86.40;;;;;;5012079;28;20444;-78
2023/01/08 04:32:09;;;;;;;;;;;10.30;86.40;;;;;;5011966;28;19913;-77
2023/01/08 04:34:34;;;;;;;;;;;10.30;86.50;;;;;;4994369;28;19924;-77
2023/01/08 04:37:00;;;;;;;;;;;10.30;86.50;;;;;;4994509;28;19964;-77
2023/01/08 04:39:26;;;;;;;;;;;10.30;86.50;;;;;;5011953;28;19913;-77
2023/01/08 04:41:51;;;;;;;;;;;10.30;86.50;;;;;;5011991;28;20219;-79
2023/01/08 04:44:17;;;;;;;;;;;10.20;86.50;;;;;;4994191;28;19913;-77
2023/01/08 04:46:42;;;;;;;;;;;10.20;86.50;;;;;;5012021;28;19913;-77
2023/01/08 04:49:09;;;;;;;;;;;10.20;86.50;;;;;;5011908;28;20242;-77
2023/01/08 04:51:34;;;;;;;;;;;10.30;86.60;;;;;;5011982;28;19920;-77
2023/01/08 04:53:59;;;;;;;;;;;10.20;86.50;;;;;;4994352;28;19914;-77
2023/01/08 04:56:25;;;;;;;;;;;10.20;86.60;;;;;;5011918;28;20003;-77
2023/01/08 04:58:51;;;;;;;;;;;10.20;86.50;;;;;;5008737;28;19920;-77
2023/01/08 05:01:18;;;;;;;;;;;10.20;86.50;;;;;;4994383;28;20308;-77
2023/01/08 05:03:43;;;;;;;;;;;10.30;86.50;;;;;;5011795;28;19964;-78
2023/01/08 05:06:09;;;;;;;;;;;10.30;86.50;;;;;;4994107;28;19917;-76
2023/01/08 05:08:34;;;;;;;;;;;10.30;86.50;;;;;;4994171;28;19969;-77
2023/01/08 05:11:00;;;;;;;;;;;10.30;86.40;;;;;;4994234;28;19932;-77
2023/01/08 05:13:26;;;;;;;;;;;10.30;86.30;;;;;;5011507;28;20381;-77
2023/01/08 05:15:52;;;;;;;;;;;10.30;86.40;;;;;;5012389;28;19913;-77
2023/01/08 05:18:17;;;;;;;;;;;10.30;86.50;;;;;;4997903;28;19972;-77
2023/01/08 05:20:43;;;;;;;;;;;10.30;86.50;;;;;;4997888;28;20300;-77
2023/01/08 05:23:08;;;;;;;;;;;10.30;86.50;;;;;;4997834;28;20016;-79
2023/01/08 05:25:34;;;;;;;;;;;10.30;86.50;;;;;;4998008;28;20351;-78
2023/01/08 05:27:59;;;;;;;;;;;10.30;86.50;;;;;;5015374;28;19913;-77
2023/01/08 05:30:25;;;;;;;;;;;10.30;86.50;;;;;;5015313;28;20044;-77
2023/01/08 05:32:50;;;;;;;;;;;10.30;86.50;;;;;;5015077;28;20016;-78
2023/01/08 05:35:16;;;;;;;;;;;10.30;86.60;;;;;;5015324;28;20381;-78
2023/01/08 05:37:41;;;;;;;;;;;10.30;86.50;;;;;;5015041;28;19920;-78
2023/01/08 05:40:07;;;;;;;;;;;10.30;86.60;;;;;;5015203;28;19940;-77
2023/01/08 05:42:33;;;;;;;;;;;10.30;86.50;;;;;;4997406;28;20126;-78
2023/01/08 05:44:58;;;;;;;;;;;10.30;86.60;;;;;;4997360;28;19917;-77
2023/01/08 05:47:27;;;;;;;;;;;10.30;86.60;;;;;;4997257;28;20427;-77
2023/01/08 05:49:53;;;;;;;;;;;10.20;86.50;;;;;;4997246;28;19922;-79
2023/01/08 05:52:18;;;;;;;;;;;10.20;86.60;;;;;;5014665;28;19913;-77
2023/01/08 05:54:44;;;;;;;;;;;10.20;86.60;;;;;;5014815;28;19920;-77
2023/01/08 05:57:09;;;;;;;;;;;10.20;86.60;;;;;;4997033;28;20008;-77
2023/01/08 05:59:35;;;;;;;;;;;10.20;86.60;;;;;;5014849;28;19917;-78
2023/01/08 06:02:00;;;;;;;;;;;10.20;87.30;;;;;;5014921;28;20000;-77
2023/01/08 06:04:25;;;;;;;;;;;10.20;86.60;;;;;;4996964;28;19913;-77
2023/01/08 06:06:51;;;;;;;;;;;10.10;86.60;;;;;;5014507;28;19913;-76
2023/01/08 06:09:16;;;;;;;;;;;10.10;86.60;;;;;;4996980;28;20371;-76
2023/01/08 06:11:42;;;;;;;;;;;10.10;86.60;;;;;;5014585;28;19967;-77
2023/01/08 06:14:08;;;;;;;;;;;10.20;86.60;;;;;;5014413;28;20402;-76
2023/01/08 06:16:33;;;;;;;;;;;10.10;86.60;;;;;;5014649;28;19917;-76
2023/01/08 06:18:58;;;;;;;;;;;10.10;86.50;;;;;;4996813;28;20356;-76
2023/01/08 06:21:24;;;;;;;;;;;10.10;86.50;;;;;;4996700;28;20005;-76
2023/01/08 06:23:49;;;;;;;;;;;10.10;86.40;;;;;;5014379;28;19913;-76
2023/01/08 06:26:15;;;;;;;;;;;10.10;86.40;;;;;;5014311;28;19917;-76
2023/01/08 06:28:40;;;;;;;;;;;10.10;86.30;;;;;;5013254;28;19918;-76
2023/01/08 06:31:06;;;;;;;;;;;10.10;86.30;;;;;;5014269;28;19917;-76
2023/01/08 06:33:33;;;;;;;;;;;10.10;86.30;;;;;;4996160;28;20373;-76
2023/01/08 06:36:00;;;;;;;;;;;10.00;86.30;;;;;;5014058;28;19914;-76
2023/01/08 06:38:25;;;;;;;;;;;10.00;86.30;;;;;;4993526;28;19971;-76
2023/01/08 06:40:50;;;;;;;;;;;9.90;86.40;;;;;;5014205;28;19914;-76
2023/01/08 06:43:16;;;;;;;;;;;9.90;86.40;;;;;;5013863;28;19914;-76
2023/01/08 06:45:42;;;;;;;;;;;9.80;86.40;;;;;;5013919;28;20318;-76
2023/01/08 06:48:07;;;;;;;;;;;9.80;86.60;;;;;;5013865;28;20067;-76
2023/01/08 06:50:33;;;;;;;;;;;9.70;86.60;;;;;;5013775;28;20312;-77
2023/01/08 06:52:59;;;;;;;;;;;9.60;86.70;;;;;;5013762;28;19924;-77
2023/01/08 06:55:24;;;;;;;;;;;9.60;86.70;;;;;;5013851;28;20457;-77
2023/01/08 06:57:57;;;;;;;;;;;9.50;86.70;;;;;;5013653;28;19914;-76
2023/01/08 07:00:24;;;;;;;;;;;9.50;86.80;;;;;;4996175;28;19941;-78
2023/01/08 07:02:50;;;;;;;;;;;9.50;87.00;;;;;;5010711;28;19936;-77
2023/01/08 07:05:16;;;;;;;;;;;9.40;87.00;;;;;;5013563;28;19913;-79
2023/01/08 07:07:42;;;;;;;;;;;9.40;86.90;;;;;;5013445;28;19913;-76
2023/01/08 07:10:08;;;;;;;;;;;9.30;86.90;;;;;;4995795;28;19976;-76
2023/01/08 07:12:34;;;;;;;;;;;9.30;86.90;;;;;;5013532;28;19972;-77
2023/01/08 07:15:00;;;;;;;;;;;9.30;87.00;;;;;;5010322;28;19924;-77
2023/01/08 07:17:26;;;;;;;;;;;9.30;86.90;;;;;;4995878;28;19917;-76
2023/01/08 07:19:51;;;;;;;;;;;9.20;86.80;;;;;;4995699;28;20282;-77
2023/01/08 07:22:17;;;;;;;;;;;9.20;86.80;;;;;;5013334;28;20395;-76
2023/01/08 07:24:42;;;;;;;;;;;9.20;86.80;;;;;;4995986;28;19914;-77
2023/01/08 07:27:08;;;;;;;;;;;9.10;86.70;;;;;;5013390;28;19976;-77
2023/01/08 07:29:33;;;;;;;;;;;9.20;86.60;;;;;;5013335;28;20377;-77
2023/01/08 07:31:59;;;;;;;;;;;9.10;86.60;;;;;;5013151;28;19917;-76
2023/01/08 07:34:24;;;;;;;;;;;9.10;86.60;;;;;;5013029;28;19924;-78
2023/01/08 07:36:50;;;;;;;;;;;9.10;86.60;;;;;;4995405;28;19913;-76
2023/01/08 07:39:15;;;;;;;;;;;9.10;86.60;;;;;;5013010;28;19914;-77
2023/01/08 07:41:40;;;;;;;;;;;9.10;86.60;;;;;;5012682;28;19914;-76
2023/01/08 07:44:06;;;;;;;;;;;9.10;86.60;;;;;;5012801;28;19918;-76
2023/01/08 07:46:31;;;;;;;;;;;9.00;86.60;;;;;;5012897;28;19914;-76
2023/01/08 07:48:58;;;;;;;;;;;9.00;86.60;;;;;;5012629;28;20377;-77
2023/01/08 07:51:24;;;;;;;;;;;9.00;86.60;;;;;;5012639;28;19917;-77
2023/01/08 07:53:50;;;;;;;;;;;9.00;86.50;;;;;;5012476;28;20354;-77
2023/01/08 07:56:16;;;;;;;;;;;9.00;86.60;;;;;;5012731;28;19914;-78
2023/01/08 07:58:41;;;;;;;;;;;9.00;86.60;;;;;;4994984;28;19913;-76
2023/01/08 08:01:08;;;;;;;;;;;9.00;86.50;;;;;;5012615;28;19921;-77
2023/01/08 08:03:33;;;;;;;;;;;9.00;86.40;;;;;;5012510;28;20372;-81
2023/01/08 08:06:00;;;;;;;;;;;8.90;86.30;;;;;;4995039;28;19920;-76
2023/01/08 08:08:25;;;;;;;;;;;9.00;86.30;;;;;;4994711;28;19917;-77
2023/01/08 08:10:51;;;;;;;;;;;8.90;86.20;;;;;;5012864;28;20000;-77
2023/01/08 08:13:16;;;;;;;;;;;8.90;86.10;;;;;;5009454;28;20056;-77
2023/01/08 08:15:43;;;;;;;;;;;9.00;86.10;;;;;;4994610;28;20364;-77
2023/01/08 08:18:08;;;;;;;;;;;9.00;86.20;;;;;;5012549;28;20269;-77
2023/01/08 08:20:34;;;;;;;;;;;8.90;86.40;;;;;;5012590;28;19977;-77
2023/01/08 08:23:01;;;;;;;;;;;8.90;86.00;;;;;;5012704;28;19917;-77
2023/01/08 08:25:26;;;;;;;;;;;9.00;86.00;;;;;;5012614;28;20012;-77
2023/01/08 08:27:54;;;;;;;;;;;9.00;86.00;;;;;;5012554;28;19913;-77
2023/01/08 08:30:20;;;;;;;;;;;9.00;85.90;;;;;;4994763;28;19945;-77
2023/01/08 08:32:45;;;;;;;;;;;9.00;85.80;;;;;;4991477;28;19914;-77
2023/01/08 08:35:11;;;;;;;;;;;9.00;85.70;;;;;;4992896;28;19918;-76
2023/01/08 08:37:36;;;;;;;;;;;8.90;85.60;;;;;;4993065;28;19920;-76
2023/01/08 08:40:02;;;;;;;;;;;9.00;85.60;;;;;;4993072;28;19918;-77
2023/01/08 08:42:27;;;;;;;;;;;8.90;85.60;;;;;;4992827;28;19914;-76
2023/01/08 08:44:53;;;;;;;;;;;8.90;85.50;;;;;;4992728;28;20003;-77
2023/01/08 08:47:18;;;;;;;;;;;8.90;85.50;;;;;;4991628;28;20384;-79
2023/01/08 08:49:44;;;;;;;;;;;9.00;85.50;;;;;;4992558;28;19973;-77
2023/01/08 08:52:09;;;;;;;;;;;9.00;85.50;;;;;;4995215;28;20421;-77
2023/01/08 08:54:37;;;;;;;;;;;9.00;85.40;;;;;;4996833;28;19920;-76
2023/01/08 08:57:02;;;;;;;;;;;9.00;85.40;;;;;;4995263;28;19921;-76
2023/01/08 08:59:28;;;;;;;;;;;9.00;85.20;;;;;;4994943;28;19914;-74
2023/01/08 09:01:53;;;;;;;;;;;9.00;85.20;;;;;;4994938;28;19920;-73
2023/01/08 09:04:19;;;;;;;;;;;9.10;85.20;;;;;;4996520;28;19920;-74
2023/01/08 09:06:44;;;;;;;;;;;9.10;85.10;;;;;;4996338;28;19920;-75
2023/01/08 09:09:10;;;;;;;;;;;9.20;85.00;;;;;;4994742;28;19917;-74
2023/01/08 09:11:35;;;;;;;;;;;9.20;85.10;;;;;;4994901;28;19914;-74
2023/01/08 09:14:01;;;;;;;;;;;9.20;84.90;;;;;;4996122;28;19914;-75
2023/01/08 09:16:26;;;;;;;;;;;9.30;84.90;;;;;;4994868;28;19917;-74
2023/01/08 09:18:52;;;;;;;;;;;9.30;84.70;;;;;;4994720;28;20338;-74
2023/01/08 09:21:17;;;;;;;;;;;9.40;84.70;;;;;;4996319;28;20036;-75
2023/01/08 09:23:43;;;;;;;;;;;9.40;84.70;;;;;;4996053;28;19926;-75
2023/01/08 09:26:08;;;;;;;;;;;9.40;84.60;;;;;;4994646;28;20312;-75
2023/01/08 09:28:34;;;;;;;;;;;9.50;84.60;;;;;;4994453;28;20020;-75
2023/01/08 09:31:00;;;;;;;;;;;9.50;84.40;;;;;;4994399;28;20005;-75
2023/01/08 09:33:26;;;;;;;;;;;9.50;84.50;;;;;;5005196;28;19918;-78
2023/01/08 09:35:51;;;;;;;;;;;9.60;84.40;;;;;;5015663;28;19913;-77
2023/01/08 09:38:16;;;;;;;;;;;9.50;84.30;;;;;;4998269;28;20020;-79
2023/01/08 09:40:48;;;;;;;;;;;9.60;84.40;;;;;;5016103;28;19914;-78
2023/01/08 09:43:15;;;;;;;;;;;9.60;84.30;;;;;;5015754;28;20319;-78
2023/01/08 09:45:41;;;;;;;;;;;9.60;84.20;;;;;;5015972;28;20372;-78
2023/01/08 09:48:12;;;;;;;;;;;9.60;84.00;;;;;;5015601;28;19914;-78
2023/01/08 09:50:38;;;;;;;;;;;9.70;84.10;;;;;;5015685;28;20562;-78
2023/01/08 09:53:03;;;;;;;;;;;9.60;84.00;;;;;;5015289;28;20012;-78
2023/01/08 09:55:31;;;;;;;;;;;9.60;84.00;;;;;;4997441;28;19913;-78
2023/01/08 09:57:58;;;;;;;;;;;9.50;84.00;;;;;;4997388;28;19925;-78
2023/01/08 10:00:25;;;;;;;;;;;9.50;84.10;;;;;;4997174;28;19968;-78
2023/01/08 10:02:52;;;;;;;;;;;9.50;84.10;;;;;;5013437;28;20002;-78
2023/01/08 10:05:18;;;;;;;;;;;9.40;84.10;;;;;;5014883;28;19914;-78
2023/01/08 10:07:44;;;;;;;;;;;9.50;84.30;;;;;;5014755;28;20284;-79
2023/01/08 10:10:15;;;;;;;;;;;9.40;84.20;;;;;;4996973;28;19922;-77
2023/01/08 10:12:41;;;;;;;;;;;9.40;84.30;;;;;;5014777;28;20107;-78
2023/01/08 10:15:10;;;;;;;;;;;9.40;84.40;;;;;;5014797;28;19920;-77
2023/01/08 10:17:39;;;;;;;;;;;9.40;84.40;;;;;;4997342;28;19917;-77
2023/01/08 10:20:19;;;;;;;;;;;9.40;84.30;;;;;;5015037;28;20360;-77
2023/01/08 10:22:46;;;;;;;;;;;9.50;84.40;;;;;;5014839;28;19921;-78
2023/01/08 10:25:17;;;;;;;;;;;9.50;84.30;;;;;;5014663;28;20008;-76
2023/01/08 10:27:45;;;;;;;;;;;9.50;84.20;;;;;;5014511;28;20385;-76
2023/01/08 10:30:14;;;;;;;;;;;9.60;84.20;;;;;;4996656;28;19960;-76
2023/01/08 10:32:45;;;;;;;;;;;9.60;84.10;;;;;;5014267;28;20318;-77
2023/01/08 10:35:19;;;;;;;;;;;9.50;84.10;;;;;;4996772;28;19920;-77
2023/01/08 10:37:49;;;;;;;;;;;9.60;84.20;;;;;;5014299;28;19913;-77
2023/01/08 10:40:22;;;;;;;;;;;9.60;84.10;;;;;;4996507;28;19913;-77
2023/01/08 10:42:49;;;;;;;;;;;9.70;84.20;;;;;;5014329;28;19920;-77
2023/01/08 10:45:19;;;;;;;;;;;9.70;84.10;;;;;;5014200;28;20368;-77
2023/01/08 10:47:46;;;;;;;;;;;9.70;84.00;;;;;;4996460;28;19913;-77
2023/01/08 10:50:23;;;;;;;;;;;9.70;84.10;;;;;;5013788;28;19929;-77
2023/01/08 10:52:53;;;;;;;;;;;9.80;84.20;;;;;;4996544;28;19913;-78
2023/01/08 10:55:30;;;;;;;;;;;9.80;84.30;;;;;;5014578;28;19913;-79
2023/01/08 10:58:00;;;;;;;;;;;9.90;84.10;;;;;;4996327;28;19920;-78
2023/01/08 11:00:32;;;;;;;;;;;9.90;83.90;;;;;;5013846;28;20369;-76
2023/01/08 11:02:59;;;;;;;;;;;9.90;83.90;;;;;;5013738;28;20024;-77
2023/01/08 11:05:30;;;;;;;;;;;9.90;83.90;;;;;;4995970;28;19920;-77
2023/01/08 11:07:57;;;;;;;;;;;10.00;84.00;;;;;;5013725;28;19913;-77
2023/01/08 11:10:24;;;;;;;;;;;10.00;83.90;;;;;;4996116;28;19975;-76
2023/01/08 11:12:57;;;;;;;;;;;10.10;83.80;;;;;;5013590;28;19963;-75
2023/01/08 11:15:30;;;;;;;;;;;10.10;83.80;;;;;;4995261;28;19993;-73
2023/01/08 11:18:03;;;;;;;;;;;10.10;83.80;;;;;;5013459;28;19936;-72
2023/01/08 11:20:29;;;;;;;;;;;10.10;83.80;;;;;;4995482;28;19910;-73
2023/01/08 11:23:10;;;;;;;;;;;10.10;83.90;;;;;;5013074;28;20262;-74
2023/01/08 11:25:37;;;;;;;;;;;10.20;83.80;;;;;;5013133;28;19913;-74
2023/01/08 11:28:03;;;;;;;;;;;10.20;83.70;;;;;;4995447;28;19909;-75
2023/01/08 11:30:31;;;;;;;;;;;10.20;83.60;;;;;;5012968;28;20440;-73
2023/01/08 11:33:00;;;;;;;;;;;10.20;83.60;;;;;;4995398;28;19917;-74
2023/01/08 11:35:28;;;;;;;;;;;10.20;83.60;;;;;;4995312;28;19917;-75
2023/01/08 11:37:58;;;;;;;;;;;10.30;83.60;;;;;;5012981;28;20269;-76
2023/01/08 11:40:43;;;;;;;;;;;10.40;83.60;;;;;;5013468;28;19940;-79
2023/01/08 11:43:14;;;;;;;;;;;10.40;83.40;;;;;;5013001;28;19910;-78
2023/01/08 11:45:58;;;;;;;;;;;10.40;83.30;;;;;;5013173;28;19963;-79
2023/01/08 11:48:24;;;;;;;;;;;10.50;83.30;;;;;;5013065;28;20353;-79
2023/01/08 11:51:08;;;;;;;;;;;10.50;83.20;;;;;;5014193;28;19916;-79
2023/01/08 11:53:45;;;;;;;;;;;10.50;83.40;;;;;;5014224;28;19909;-80
2023/01/08 11:56:16;;;;;;;;;;;10.50;83.20;;;;;;4995550;28;19936;-76
2023/01/08 11:58:44;;;;;;;;;;;10.50;83.90;;;;;;5014248;28;19910;-79
2023/01/08 12:01:31;;;;;;;;;;;10.50;83.30;;;;;;4996406;28;19910;-78
2023/01/08 12:04:15;;;;;;;;;;;10.50;83.30;;;;;;5014085;28;20284;-79
2023/01/08 12:06:50;;;;;;;;;;;10.50;83.30;;;;;;4996374;28;19916;-80
2023/01/08 12:09:21;;;;;;;;;;;10.60;83.10;;;;;;5013730;28;20399;-79
2023/01/08 12:11:49;;;;;;;;;;;10.60;83.00;;;;;;5015801;28;19910;-80
2023/01/08 12:14:19;;;;;;;;;;;10.60;83.10;;;;;;5014269;28;19909;-79
2023/01/08 12:17:00;;;;;;;;;;;10.60;82.90;;;;;;4996175;28;20004;-79
2023/01/08 12:19:32;;;;;;;;;;;10.70;82.70;;;;;;5013798;28;19909;-79
2023/01/08 12:22:00;;;;;;;;;;;10.70;82.80;;;;;;4995820;28;19983;-77
2023/01/08 12:24:26;;;;;;;;;;;10.70;82.60;;;;;;4995634;28;19996;-77
2023/01/08 12:26:57;;;;;;;;;;;10.70;82.50;;;;;;4995030;28;20028;-80
2023/01/08 12:29:26;;;;;;;;;;;10.80;82.60;;;;;;4995648;28;20008;-81
2023/01/08 12:31:51;;;;;;;;;;;10.80;82.50;;;;;;4995836;28;19909;-78
2023/01/08 12:34:39;;;;;;;;;;;10.80;82.40;;;;;;5013667;28;19924;-83
2023/01/08 12:37:17;;;;;;;;;;;10.80;82.30;;;;;;4996380;28;19989;-81
2023/01/08 12:40:08;;;;;;;;;;;10.90;82.00;;;;;;5014182;28;19996;-78
2023/01/08 12:42:38;;;;;;;;;;;10.90;82.10;;;;;;5010842;28;20333;-78
2023/01/08 12:45:06;;;;;;;;;;;10.90;82.00;;;;;;5014022;28;20370;-79
2023/01/08 12:47:34;;;;;;;;;;;10.90;82.00;;;;;;5013735;28;19910;-79
2023/01/08 12:50:19;;;;;;;;;;;10.90;81.80;;;;;;4995781;28;20015;-79
2023/01/08 12:53:11;;;;;;;;;;;10.90;81.90;;;;;;4995633;28;19910;-78
2023/01/08 12:55:41;;;;;;;;;;;11.00;82.10;;;;;;4992921;28;20000;-80
2023/01/08 12:58:15;;;;;;;;;;;11.10;81.70;;;;;;4995784;28;19910;-80
2023/01/08 13:00:45;;;;;;;;;;;11.20;81.70;;;;;;4995692;28;19953;-79
2023/01/08 13:03:17;;;;;;;;;;;11.30;81.40;;;;;;5013627;28;20000;-79
2023/01/08 13:05:44;;;;;;;;;;;11.30;81.30;;;;;;5013093;28;20356;-79
2023/01/08 13:08:28;;;;;;;;;;;11.40;81.10;;;;;;5013119;28;19996;-79
2023/01/08 13:10:54;;;;;;;;;;;11.40;80.70;;;;;;4995452;28;19943;-79
2023/01/08 13:13:29;;;;;;;;;;;11.50;80.60;;;;;;5013529;28;20349;-81
2023/01/08 13:16:06;;;;;;;;;;;11.40;80.70;;;;;;4997251;28;20353;-82
2023/01/08 13:18:32;;;;;;;;;;;11.40;80.60;;;;;;4999047;28;19910;-80
2023/01/08 13:20:59;;;;;;;;;;;11.40;80.30;;;;;;4997176;28;19977;-79
2023/01/08 13:23:27;;;;;;;;;;;11.50;80.30;;;;;;4997974;28;19963;-81
2023/01/08 13:26:00;;;;;;;;;;;11.40;80.40;;;;;;4999371;28;19910;-82
2023/01/08 13:28:40;;;;;;;;;;;11.40;80.40;;;;;;4998358;28;19959;-77
2023/01/08 13:31:08;;;;;;;;;;;11.40;80.50;;;;;;5013925;28;19964;-77
2023/01/08 13:33:33;;;;;;;;;;;11.50;80.50;;;;;;4992822;28;20377;-78
2023/01/08 13:36:11;;;;;;;;;;;11.40;80.20;;;;;;4993906;28;19917;-77
2023/01/08 13:38:36;;;;;;;;;;;11.40;80.00;;;;;;4997048;28;19932;-78
2023/01/08 13:41:02;;;;;;;;;;;11.40;79.90;;;;;;4997657;28;19910;-77
2023/01/08 13:43:36;;;;;;;;;;;11.40;79.70;;;;;;4996337;28;19997;-77
2023/01/08 13:46:02;;;;;;;;;;;11.40;80.00;;;;;;4995956;28;19910;-78
2023/01/08 13:48:29;;;;;;;;;;;11.40;80.00;;;;;;4997041;28;19961;-78
2023/01/08 13:50:55;;;;;;;;;;;11.30;79.90;;;;;;4995631;28;19910;-78
2023/01/08 13:53:23;;;;;;;;;;;11.30;80.00;;;;;;4995135;28;19909;-78
2023/01/08 13:55:58;;;;;;;;;;;11.30;80.50;;;;;;4996526;28;19917;-78
2023/01/08 13:58:30;;;;;;;;;;;11.20;79.90;;;;;;4999399;28;20424;-78
2023/01/08 14:00:56;;;;;;;;;;;11.20;79.50;;;;;;4998970;28;19957;-76
2023/01/08 14:03:27;;;;;;;;;;;11.20;79.60;;;;;;4995026;28;19909;-78
2023/01/08 14:06:03;;;;;;;;;;;11.10;79.90;;;;;;4995060;28;19917;-78
2023/01/08 14:08:29;;;;;;;;;;;11.10;79.70;;;;;;4994859;28;20353;-77
2023/01/08 14:10:54;;;;;;;;;;;11.20;79.20;;;;;;4995075;28;19957;-78
2023/01/08 14:13:23;;;;;;;;;;;11.20;79.10;;;;;;4994789;28;19909;-77
2023/01/08 14:15:48;;;;;;;;;;;11.10;79.10;;;;;;4996256;28;19956;-77
2023/01/08 14:18:14;;;;;;;;;;;11.20;79.30;;;;;;4996161;28;20361;-76
2023/01/08 14:20:41;;;;;;;;;;;11.20;78.50;;;;;;4996489;28;20262;-78
2023/01/08 14:23:13;;;;;;;;;;;11.20;78.70;;;;;;4994752;28;19917;-78
2023/01/08 14:25:40;;;;;;;;;;;11.20;78.90;;;;;;4994954;28;19916;-79